createdAt,value
2018-08-04T00:02:10.243Z,62.80
2018-08-04T00:04:44.953Z,62.60
2018-08-04T00:07:20.326Z,63.20
2018-08-04T00:09:55.324Z,63.50
2018-08-04T00:12:30.181Z,63.50
2018-08-04T00:15:05.702Z,64.40
2018-08-04T00:17:40.814Z,64.00
2018-08-04T00:20:16.451Z,64.10
2018-08-04T00:22:51.359Z,64.40
2018-08-04T00:25:26.248Z,64.60
2018-08-04T00:28:01.495Z,64.70
2018-08-04T00:30:36.407Z,65.00
2018-08-04T00:33:11.533Z,65.70
2018-08-04T00:35:46.407Z,65.50
2018-08-04T00:38:21.633Z,65.80
2018-08-04T00:40:56.543Z,65.30
2018-08-04T00:43:31.495Z,66.20
2018-08-04T00:46:06.733Z,66.30
2018-08-04T00:48:42.077Z,66.50
2018-08-04T00:51:16.968Z,66.80
2018-08-04T00:53:51.892Z,67.20
2018-08-04T00:56:26.846Z,67.30
2018-08-04T01:01:36.251Z,67.40
2018-08-04T01:04:11.482Z,67.80
2018-08-04T01:06:46.430Z,68.00
2018-08-04T01:09:21.641Z,67.90
2018-08-04T01:11:56.894Z,68.00
2018-08-04T01:14:32.121Z,67.70
2018-08-04T01:17:07.587Z,67.60
2018-08-04T01:19:42.654Z,67.70
2018-08-04T01:22:17.867Z,68.00
2018-08-04T01:24:53.108Z,68.40
2018-08-04T01:27:28.042Z,68.60
2018-08-04T01:30:03.141Z,68.80
2018-08-04T01:32:38.115Z,68.60
2018-08-04T01:35:13.132Z,68.80
2018-08-04T01:37:48.721Z,69.10
2018-08-04T01:40:23.885Z,68.90
2018-08-04T01:42:58.896Z,69.10
2018-08-04T01:45:33.635Z,69.20
2018-08-04T01:48:08.631Z,69.30
2018-08-04T01:50:43.539Z,69.60
2018-08-04T01:53:18.660Z,69.80
2018-08-04T01:55:54.033Z,69.80
2018-08-04T01:58:28.940Z,70.00
2018-08-04T02:03:38.801Z,70.10
2018-08-04T02:06:13.650Z,70.10
2018-08-04T02:08:48.922Z,70.20
2018-08-04T02:11:23.834Z,70.30
2018-08-04T02:13:59.509Z,70.40
2018-08-04T02:16:34.501Z,70.50
2018-08-04T02:19:09.754Z,70.90
2018-08-04T02:21:44.975Z,70.90
2018-08-04T02:24:20.543Z,71.10
2018-08-04T02:26:55.513Z,71.30
2018-08-04T02:29:30.363Z,71.60
2018-08-04T02:34:41.386Z,71.90
2018-08-04T02:37:16.897Z,72.20
2018-08-04T02:39:52.228Z,72.60
2018-08-04T02:42:27.470Z,72.90
2018-08-04T02:45:02.716Z,72.50
2018-08-04T02:47:38.060Z,73.10
2018-08-04T02:50:13.233Z,73.20
2018-08-04T02:52:48.060Z,73.40
2018-08-04T02:55:23.164Z,73.60
2018-08-04T02:57:58.405Z,74.10
2018-08-04T03:00:33.394Z,74.00
2018-08-04T03:03:08.730Z,74.20
2018-08-04T03:05:43.722Z,74.40
2018-08-04T03:08:18.860Z,75.40
2018-08-04T03:10:54.146Z,74.80
2018-08-04T03:13:28.908Z,75.20
2018-08-04T03:16:04.151Z,75.50
2018-08-04T03:18:39.254Z,75.90
2018-08-04T03:21:14.527Z,76.20
2018-08-04T03:23:49.453Z,76.60
2018-08-04T03:26:25.380Z,76.90
2018-08-04T03:29:00.484Z,77.30
2018-08-04T03:31:35.388Z,77.70
2018-08-04T03:34:10.704Z,78.10
2018-08-04T03:36:45.962Z,78.00
2018-08-04T03:39:20.769Z,78.30
2018-08-04T03:41:56.761Z,78.40
2018-08-04T03:47:07.993Z,78.60
2018-08-04T03:49:42.785Z,78.70
2018-08-04T03:52:17.891Z,78.50
2018-08-04T03:54:53.527Z,78.30
2018-08-04T03:57:28.915Z,78.10
2018-08-04T04:00:05.684Z,78.20
2018-08-04T04:02:41.006Z,78.20
2018-08-04T04:05:16.479Z,78.40
2018-08-04T04:07:52.304Z,78.40
2018-08-04T04:10:27.294Z,78.40
2018-08-04T04:13:02.413Z,78.20
2018-08-04T04:15:37.374Z,78.30
2018-08-04T04:18:12.565Z,78.60
2018-08-04T04:20:47.380Z,78.70
2018-08-04T04:23:22.288Z,78.50
2018-08-04T04:25:57.139Z,78.10
2018-08-04T04:28:32.151Z,77.80
2018-08-04T04:31:08.025Z,78.00
2018-08-04T04:33:43.052Z,78.10
2018-08-04T04:36:18.414Z,77.90
2018-08-04T04:38:53.492Z,77.60
2018-08-04T04:41:28.787Z,77.20
2018-08-04T04:44:04.222Z,76.60
2018-08-04T04:46:40.315Z,75.70
2018-08-04T04:49:14.982Z,75.60
2018-08-04T04:51:50.627Z,75.50
2018-08-04T04:54:25.572Z,75.70
2018-08-04T04:57:00.802Z,75.90
2018-08-04T04:59:35.725Z,76.00
2018-08-04T05:02:10.810Z,76.00
2018-08-04T05:04:46.108Z,76.20
2018-08-04T05:07:21.021Z,76.20
2018-08-04T05:09:56.827Z,75.70
2018-08-04T05:15:07.573Z,75.60
2018-08-04T05:17:42.648Z,75.50
2018-08-04T05:20:17.783Z,75.70
2018-08-04T05:22:53.426Z,75.10
2018-08-04T05:25:28.594Z,74.90
2018-08-04T05:30:37.922Z,74.60
2018-08-04T05:33:12.751Z,74.10
2018-08-04T05:35:47.798Z,74.10
2018-08-04T05:38:23.061Z,73.90
2018-08-04T05:40:57.806Z,74.00
2018-08-04T05:46:07.726Z,73.90
2018-08-04T05:48:42.995Z,73.50
2018-08-04T05:51:17.972Z,73.50
2018-08-04T05:53:56.325Z,74.10
2018-08-04T05:56:31.447Z,73.20
2018-08-04T05:59:06.399Z,72.90
2018-08-04T06:01:41.680Z,72.80
2018-08-04T06:04:17.048Z,72.60
2018-08-04T06:06:52.640Z,72.30
2018-08-04T06:09:27.748Z,71.90
2018-08-04T06:12:03.024Z,72.00
2018-08-04T06:14:38.529Z,71.90
2018-08-04T06:17:13.527Z,72.00
2018-08-04T06:19:48.840Z,71.60
2018-08-04T06:22:23.788Z,71.80
2018-08-04T06:24:58.925Z,72.00
2018-08-04T06:27:34.052Z,71.70
2018-08-04T06:30:10.353Z,70.90
2018-08-04T06:32:45.195Z,70.90
2018-08-04T06:35:20.594Z,70.90
2018-08-04T06:37:55.768Z,70.40
2018-08-04T06:40:30.869Z,70.30
2018-08-04T06:43:05.954Z,70.60
2018-08-04T06:45:41.112Z,70.60
2018-08-04T06:48:16.331Z,70.10
2018-08-04T06:50:51.515Z,70.10
2018-08-04T06:53:26.757Z,70.30
2018-08-04T06:56:02.734Z,70.20
2018-08-04T06:58:37.863Z,70.10
2018-08-04T07:01:13.161Z,69.70
2018-08-04T07:03:48.030Z,70.40
2018-08-04T07:06:23.249Z,70.00
2018-08-04T07:08:58.516Z,70.40
2018-08-04T07:11:33.642Z,69.30
2018-08-04T07:14:09.357Z,68.80
2018-08-04T07:16:44.130Z,70.10
2018-08-04T07:19:19.363Z,69.00
2018-08-04T07:22:00.462Z,68.90
2018-08-04T07:24:36.014Z,69.40
2018-08-04T07:27:11.379Z,69.00
2018-08-04T07:29:46.839Z,68.60
2018-08-04T07:32:22.360Z,68.70
2018-08-04T07:34:57.860Z,68.30
2018-08-04T07:37:32.915Z,68.80
2018-08-04T07:40:08.606Z,68.50
2018-08-04T07:42:43.729Z,68.50
2018-08-04T07:45:18.648Z,68.00
2018-08-04T07:47:53.917Z,67.90
2018-08-04T07:50:30.574Z,67.80
2018-08-04T07:53:05.957Z,68.00
2018-08-04T07:55:41.026Z,67.40
2018-08-04T07:58:16.339Z,67.00
2018-08-04T08:00:51.279Z,67.00
2018-08-04T08:03:26.391Z,66.60
2018-08-04T08:06:01.367Z,67.00
2018-08-04T08:08:36.590Z,67.60
2018-08-04T08:11:11.841Z,67.40
2018-08-04T08:13:47.737Z,67.90
2018-08-04T08:16:22.566Z,66.80
2018-08-04T08:18:57.748Z,67.20
2018-08-04T08:21:32.731Z,67.00
2018-08-04T08:24:08.093Z,67.20
2018-08-04T08:26:43.093Z,66.10
2018-08-04T08:29:17.983Z,66.40
2018-08-04T08:31:52.908Z,65.90
2018-08-04T08:34:28.171Z,66.30
2018-08-04T08:37:03.163Z,65.60
2018-08-04T08:39:38.207Z,64.10
2018-08-04T08:42:13.542Z,64.50
2018-08-04T08:44:55.008Z,64.70
2018-08-04T08:47:30.090Z,63.90
2018-08-04T08:50:08.608Z,62.80
2018-08-04T08:52:43.882Z,62.40
2018-08-04T08:55:18.801Z,62.70
2018-08-04T08:57:53.934Z,61.00
2018-08-04T09:00:28.799Z,61.00
2018-08-04T09:03:04.604Z,59.00
2018-08-04T09:05:40.034Z,58.80
2018-08-04T09:08:15.280Z,58.50
2018-08-04T09:10:50.979Z,57.70
2018-08-04T09:13:26.004Z,57.50
2018-08-04T09:16:01.151Z,57.50
2018-08-04T09:21:10.750Z,57.50
2018-08-04T09:23:45.701Z,57.20
2018-08-04T09:26:21.532Z,56.90
2018-08-04T09:28:56.481Z,57.30
2018-08-04T09:31:31.650Z,57.30
2018-08-04T09:34:06.948Z,57.70
2018-08-04T09:36:41.955Z,57.20
2018-08-04T09:39:16.945Z,57.40
2018-08-04T09:41:52.416Z,57.30
2018-08-04T09:44:27.443Z,56.60
2018-08-04T09:47:02.470Z,56.80
2018-08-04T09:49:37.512Z,56.40
2018-08-04T09:52:12.649Z,55.70
2018-08-04T09:54:47.770Z,55.90
2018-08-04T09:57:22.775Z,55.60
2018-08-04T09:59:58.394Z,55.80
2018-08-04T10:02:33.914Z,55.80
2018-08-04T10:05:08.867Z,56.00
2018-08-04T10:07:44.073Z,55.20
2018-08-04T10:10:19.446Z,54.90
2018-08-04T10:12:54.579Z,55.00
2018-08-04T10:15:29.622Z,55.20
2018-08-04T10:18:04.724Z,54.60
2018-08-04T10:20:39.843Z,54.50
2018-08-04T10:23:14.938Z,54.90
2018-08-04T10:25:49.930Z,54.90
2018-08-04T10:28:25.059Z,54.70
2018-08-04T10:31:00.054Z,54.60
2018-08-04T10:33:35.047Z,54.20
2018-08-04T10:36:10.324Z,54.20
2018-08-04T10:38:45.750Z,54.20
2018-08-04T10:41:20.951Z,53.90
2018-08-04T10:43:55.917Z,53.90
2018-08-04T10:46:31.546Z,53.70
2018-08-04T10:49:06.954Z,53.70
2018-08-04T10:51:41.938Z,54.30
2018-08-04T10:54:17.381Z,53.90
2018-08-04T10:56:52.428Z,54.20
2018-08-04T10:59:27.941Z,54.10
2018-08-04T11:02:03.058Z,54.30
2018-08-04T11:04:38.063Z,53.80
2018-08-04T11:07:13.058Z,53.90
2018-08-04T11:09:48.415Z,53.60
2018-08-04T11:12:23.638Z,53.90
2018-08-04T11:14:59.253Z,53.40
2018-08-04T11:17:34.465Z,53.30
2018-08-04T11:20:09.696Z,53.10
2018-08-04T11:22:44.762Z,53.30
2018-08-04T11:25:20.224Z,53.50
2018-08-04T11:27:55.548Z,53.30
2018-08-04T11:30:31.552Z,53.20
2018-08-04T11:33:06.690Z,52.70
2018-08-04T11:35:41.933Z,52.30
2018-08-04T11:38:17.880Z,52.00
2018-08-04T11:40:52.979Z,51.80
2018-08-04T11:43:28.176Z,51.20
2018-08-04T11:46:03.160Z,52.20
2018-08-04T11:48:38.320Z,51.40
2018-08-04T11:51:13.367Z,50.50
2018-08-04T11:53:48.315Z,50.30
2018-08-04T11:56:23.434Z,50.40
2018-08-04T11:58:58.741Z,50.20
2018-08-04T12:01:33.748Z,50.30
2018-08-04T12:04:08.777Z,50.90
2018-08-04T12:06:43.682Z,50.40
2018-08-04T12:09:18.896Z,50.70
2018-08-04T12:11:54.330Z,49.70
2018-08-04T12:14:30.035Z,49.30
2018-08-04T12:17:05.132Z,49.20
2018-08-04T12:19:40.009Z,49.10
2018-08-04T12:22:15.208Z,48.90
2018-08-04T12:24:50.902Z,48.30
2018-08-04T12:27:26.265Z,48.60
2018-08-04T12:30:01.324Z,49.30
2018-08-04T12:32:36.710Z,49.30
2018-08-04T12:35:12.262Z,48.80
2018-08-04T12:37:48.252Z,48.50
2018-08-04T12:40:23.183Z,48.70
2018-08-04T12:43:02.691Z,48.70
2018-08-04T12:48:13.637Z,48.50
2018-08-04T12:50:48.698Z,49.40
2018-08-04T12:53:23.727Z,48.70
2018-08-04T12:55:59.963Z,49.20
2018-08-04T12:58:35.637Z,48.40
2018-08-04T13:01:11.144Z,48.30
2018-08-04T13:03:46.642Z,47.80
2018-08-04T13:06:21.708Z,48.10
2018-08-04T13:08:58.113Z,48.80
2018-08-04T13:11:34.356Z,49.00
2018-08-04T13:14:09.541Z,48.30
2018-08-04T13:16:45.051Z,49.00
2018-08-04T13:19:21.711Z,48.80
2018-08-04T13:21:57.363Z,48.70
2018-08-04T13:24:33.156Z,48.60
2018-08-04T13:27:09.382Z,49.10
2018-08-04T13:29:45.699Z,49.30
2018-08-04T13:32:20.831Z,49.20
2018-08-04T13:34:55.648Z,49.80
2018-08-04T13:37:31.815Z,48.80
2018-08-04T13:40:07.843Z,49.50
2018-08-04T13:45:19.803Z,49.50
2018-08-04T13:47:54.915Z,49.20
2018-08-04T13:50:30.271Z,49.10
2018-08-04T13:53:06.171Z,49.20
2018-08-04T13:55:41.645Z,49.70
2018-08-04T13:58:17.197Z,49.10
2018-08-04T14:00:52.508Z,48.90
2018-08-04T14:03:27.951Z,48.60
2018-08-04T14:06:04.053Z,48.40
2018-08-04T14:08:39.182Z,48.70
2018-08-04T14:11:20.924Z,48.60
2018-08-04T14:13:57.596Z,48.40
2018-08-04T14:16:33.182Z,49.70
2018-08-04T14:19:08.788Z,48.70
2018-08-04T14:21:44.268Z,48.90
2018-08-04T14:24:20.801Z,49.20
2018-08-04T14:26:56.785Z,48.60
2018-08-04T14:29:32.162Z,48.90
2018-08-04T14:32:07.791Z,48.80
2018-08-04T14:34:43.310Z,48.70
2018-08-04T14:37:18.922Z,48.90
2018-08-04T14:39:54.324Z,50.80
2018-08-04T14:42:30.249Z,49.70
2018-08-04T14:45:05.717Z,50.10
2018-08-04T14:47:41.312Z,49.20
2018-08-04T14:50:17.466Z,50.80
2018-08-04T14:52:53.678Z,49.00
2018-08-04T14:55:29.489Z,47.80
2018-08-04T14:58:04.597Z,48.60
2018-08-04T15:00:40.016Z,48.20
2018-08-04T15:03:16.444Z,49.20
2018-08-04T15:05:52.639Z,49.50
2018-08-04T15:08:28.338Z,49.30
2018-08-04T15:11:03.948Z,48.70
2018-08-04T15:13:39.920Z,48.10
2018-08-04T15:16:15.900Z,48.10
2018-08-04T15:18:51.696Z,49.60
2018-08-04T15:21:28.002Z,48.20
2018-08-04T15:24:03.792Z,48.50
2018-08-04T15:26:39.345Z,48.30
2018-08-04T15:29:14.996Z,48.90
2018-08-04T15:31:51.169Z,48.60
2018-08-04T15:34:27.214Z,48.00
2018-08-04T15:37:03.405Z,48.50
2018-08-04T15:39:38.907Z,48.30
2018-08-04T15:42:15.123Z,48.70
2018-08-04T15:44:50.659Z,48.30
2018-08-04T15:47:26.671Z,48.30
2018-08-04T15:50:02.362Z,48.30
2018-08-04T15:52:38.471Z,48.30
2018-08-04T15:55:14.361Z,48.10
2018-08-04T16:00:25.801Z,48.80
2018-08-04T16:03:00.960Z,49.00
2018-08-04T16:05:36.975Z,48.10
2018-08-04T16:08:12.842Z,47.40
2018-08-04T16:10:48.494Z,48.30
2018-08-04T16:13:23.970Z,48.30
2018-08-04T16:16:00.429Z,47.90
2018-08-04T16:18:35.842Z,48.10
2018-08-04T16:21:12.260Z,48.30
2018-08-04T16:23:48.205Z,48.50
2018-08-04T16:26:23.682Z,48.50
2018-08-04T16:28:59.725Z,48.90
2018-08-04T16:31:35.322Z,48.30
2018-08-04T16:34:11.277Z,48.70
2018-08-04T16:36:46.691Z,48.20
2018-08-04T16:39:22.220Z,47.90
2018-08-04T16:41:58.586Z,48.10
2018-08-04T16:44:34.194Z,48.10
2018-08-04T16:47:10.449Z,49.00
2018-08-04T16:49:45.999Z,49.20
2018-08-04T16:52:21.084Z,48.80
2018-08-04T16:54:56.842Z,50.00
2018-08-04T16:57:31.929Z,49.80
2018-08-04T17:00:08.084Z,49.90
2018-08-04T17:02:43.575Z,50.20
2018-08-04T17:05:19.521Z,50.60
2018-08-04T17:10:30.517Z,51.10
2018-08-04T17:13:05.702Z,51.20
2018-08-04T17:15:41.206Z,51.50
2018-08-04T17:18:16.922Z,51.80
2018-08-04T17:20:52.676Z,53.20
2018-08-04T17:23:27.907Z,52.70
2018-08-04T17:26:03.700Z,53.40
2018-08-04T17:28:39.568Z,53.70
2018-08-04T17:31:15.574Z,54.10
2018-08-04T17:33:51.754Z,54.60
2018-08-04T17:36:26.676Z,55.20
2018-08-04T17:39:01.882Z,55.60
2018-08-04T17:41:37.536Z,55.70
2018-08-04T17:44:12.611Z,56.10
2018-08-04T17:46:47.598Z,56.10
2018-08-04T17:49:23.469Z,56.20
2018-08-04T17:51:59.018Z,56.60
2018-08-04T17:54:34.441Z,57.00
2018-08-04T17:57:09.605Z,57.40
2018-08-04T17:59:45.244Z,57.80
2018-08-04T18:02:20.284Z,57.90
2018-08-04T18:04:55.084Z,58.90
2018-08-04T18:07:30.098Z,58.30
2018-08-04T18:10:05.299Z,58.70
2018-08-04T18:12:40.254Z,59.20
2018-08-04T18:15:15.477Z,59.40
2018-08-04T18:17:51.540Z,59.90
2018-08-04T18:20:26.593Z,60.10
2018-08-04T18:25:36.466Z,61.00
2018-08-04T18:28:11.258Z,61.50
2018-08-04T18:30:46.895Z,61.40
2018-08-04T18:33:22.064Z,61.80
2018-08-04T18:35:57.296Z,61.80
2018-08-04T18:38:32.338Z,62.10
2018-08-04T18:41:07.495Z,62.50
2018-08-04T18:43:42.417Z,62.60
2018-08-04T18:46:17.655Z,63.10
2018-08-04T18:48:52.613Z,63.00
2018-08-04T18:51:27.739Z,63.30
2018-08-04T18:54:02.753Z,63.30
2018-08-04T18:59:13.227Z,64.00
2018-08-04T19:01:48.623Z,64.00
2018-08-04T19:04:26.984Z,64.50
2018-08-04T19:07:02.182Z,64.90
2018-08-04T19:09:37.162Z,65.00
2018-08-04T19:12:12.523Z,66.00
2018-08-04T19:14:47.905Z,65.70
2018-08-04T19:17:23.071Z,66.10
2018-08-04T19:19:58.264Z,66.20
2018-08-04T19:22:33.961Z,66.40
2018-08-04T19:25:09.930Z,66.70
2018-08-04T19:27:45.704Z,67.20
2018-08-04T19:30:20.856Z,67.60
2018-08-04T19:32:55.871Z,67.70
2018-08-04T19:35:31.744Z,67.80
2018-08-04T19:40:42.025Z,68.80
2018-08-04T19:43:17.204Z,69.40
2018-08-04T19:45:51.922Z,69.80
2018-08-04T19:48:27.141Z,70.10
2018-08-04T19:51:02.275Z,70.70
2018-08-04T19:53:37.367Z,71.10
2018-08-04T19:56:12.463Z,71.30
2018-08-04T19:58:47.763Z,71.90
2018-08-04T20:01:22.598Z,72.60
2018-08-04T20:03:58.597Z,73.30
2018-08-04T20:06:33.701Z,74.50
2018-08-04T20:09:11.098Z,75.60
2018-08-04T20:11:46.420Z,77.10
2018-08-04T20:14:21.846Z,78.40
2018-08-04T20:16:56.819Z,79.80
2018-08-04T20:19:32.023Z,80.70
2018-08-04T20:22:12.503Z,82.00
2018-08-04T20:24:47.950Z,83.00
2018-08-04T20:27:22.842Z,84.20
2018-08-04T20:29:58.302Z,86.00
2018-08-04T20:32:33.896Z,87.60
2018-08-04T20:35:12.018Z,88.80
2018-08-04T20:37:47.023Z,89.80
2018-08-04T20:40:22.307Z,90.40
2018-08-04T20:42:58.721Z,90.80
2018-08-04T20:45:33.928Z,91.40
2018-08-04T20:48:09.318Z,91.80
2018-08-04T20:50:44.298Z,92.60
2018-08-04T20:53:19.656Z,93.40
2018-08-04T20:55:54.638Z,93.90
2018-08-04T20:58:30.224Z,94.80
2018-08-04T21:01:16.530Z,95.50
2018-08-04T21:03:51.780Z,96.30
2018-08-04T21:06:26.565Z,97.40
2018-08-04T21:09:02.011Z,98.00
2018-08-04T21:14:16.477Z,99.30
2018-08-04T21:16:52.967Z,99.80
2018-08-04T21:19:34.954Z,99.90
2018-08-04T21:22:10.481Z,99.90
2018-08-04T21:24:45.375Z,99.90
2018-08-04T21:27:20.577Z,99.90
2018-08-04T21:29:55.611Z,99.90
2018-08-04T21:32:32.271Z,99.90
2018-08-04T21:35:08.113Z,99.90
2018-08-04T21:37:43.234Z,99.90
2018-08-04T21:40:18.238Z,99.90
2018-08-04T21:42:53.342Z,99.90
2018-08-04T21:45:28.480Z,99.90
2018-08-04T21:48:04.531Z,99.90
2018-08-04T21:53:14.858Z,99.90
2018-08-04T21:55:50.366Z,99.90
2018-08-04T21:58:25.782Z,99.90
2018-08-04T22:01:05.881Z,99.90
2018-08-04T22:06:16.947Z,99.90
2018-08-04T22:09:03.293Z,99.90
2018-08-04T22:11:38.284Z,99.90
2018-08-04T22:14:13.731Z,99.90
2018-08-04T22:16:48.910Z,99.90
2018-08-04T22:19:24.309Z,99.90
2018-08-04T22:21:59.102Z,99.90
2018-08-04T22:24:34.757Z,99.90
2018-08-04T22:27:10.042Z,99.90
2018-08-04T22:29:45.040Z,99.90
2018-08-04T22:32:20.463Z,99.90
2018-08-04T22:34:55.749Z,99.90
2018-08-04T22:37:31.270Z,99.90
2018-08-04T22:40:07.294Z,99.90
2018-08-04T22:42:42.931Z,99.90
2018-08-04T22:46:09.589Z,99.90
2018-08-04T22:48:46.169Z,99.90
2018-08-04T22:54:01.847Z,99.90
2018-08-04T22:56:36.853Z,99.90
2018-08-04T22:59:11.872Z,99.90
2018-08-04T23:01:46.747Z,99.90
2018-08-04T23:04:21.898Z,99.90
2018-08-04T23:06:57.054Z,99.90
2018-08-04T23:09:32.414Z,99.90
2018-08-04T23:12:13.783Z,99.90
2018-08-04T23:14:48.955Z,99.90
2018-08-04T23:19:58.969Z,99.90
2018-08-04T23:22:34.061Z,99.90
2018-08-04T23:25:09.468Z,99.90
2018-08-04T23:27:44.287Z,99.90
2018-08-04T23:30:19.273Z,99.90
2018-08-04T23:32:54.482Z,99.90
2018-08-04T23:38:04.966Z,99.90
2018-08-04T23:40:40.511Z,99.90
2018-08-04T23:43:15.474Z,99.90
2018-08-04T23:45:50.491Z,99.90
2018-08-04T23:48:25.526Z,99.90
2018-08-04T23:51:00.618Z,99.90
2018-08-04T23:53:36.056Z,99.90
2018-08-04T23:56:11.352Z,99.90
2018-08-04T23:58:46.158Z,99.90
